Logo AVAMET
Benvolgut visitant, si us plau, ingressa Recuperar contrasenya
AVAMET paisatges
Union Alcoyana

les Useres

Dades diàries. Acumulats / Últims 30 dies disponibles

Data Temperatura (°C) Humitat rel. (%) Pressió rel. (hPa) Vent (km/h) Precipitació
Mínima Mitjana Màxima Amplitud
tèrmica
Mínima Mitjana Màxima Mínima Mitjana Màxima Predom. Mitjana Ràfega
màxima
Total
(mm)
Índex-n
Mínima Mitjana Màxima Mínima Mitjana Màxima n
0 a 1
P0 max
mm 5'
Dades mensuals acumulades fins l'últim dia disponible
11/2021 5,4 9,5 14,1 12,3 8,9 16,1 24,5 19,1 24 62 93 1.000 1.013 1.029   7,3 70,8 48,8
Dades anuals acumulades fins l'últim dia disponible
2021 0,1 12,9 27,2 16,7 4,7 21,3 37,1 37,0 21 68 95 997 1.015 1.036   6,4 98,2 586,4
Últims 30 dies disponibles
27-11-2021 6,1     8,8     13,2 7,1 42 54 71 1.000 1.001 1.004 NW 14,8 70,8 0,2
26-11-2021 7,1     9,4     12,4 5,3 45 57 68 1.004 1.006 1.007 NW 10,1 49,9 0,0
25-11-2021 5,4     8,1     11,4 6,0 56 70 86 1.002 1.004 1.007 NNW 2,9 25,7 0,2
24-11-2021 5,7     7,1     8,9 3,2 65 79 91 1.004 1.008 1.012 NNW 6,8 29,0 8,2 0,24 0,80
23-11-2021 7,8     10,2     13,4 5,6 60 79 93 1.007 1.009 1.011 NNW 5,6 30,6 27,6 0,36 5,20
22-11-2021 8,8     10,3     12,3 3,5 65 78 92 1.008 1.009 1.011 NNW 1,8 16,1 10,2 0,37 1,00
21-11-2021 10,9     13,4     18,3 7,4 53 70 83 1.010 1.012 1.017 SE 2,9 20,9 0,0
20-11-2021 9,8     12,1     14,8 5,0 71 78 86 1.017 1.022 1.027 NNW 1,4 11,3 0,0
19-11-2021 7,2     11,3     16,3 9,1 57 75 84 1.026 1.027 1.029 NNW 2,7 24,1 0,0
18-11-2021 7,7     10,9     15,2 7,5 54 68 82 1.023 1.025 1.028 SE 4,7 29,0 0,0
17-11-2021 9,2     12,6     17,6 8,4 50 63 78 1.017 1.019 1.023 NNW 6,8 33,8 0,0
16-11-2021 9,3     12,2     15,8 6,5 48 57 62 1.015 1.016 1.018 NNW 9,7 35,4 0,0
15-11-2021 10,8     12,7     15,8 5,0 43 52 57 1.012 1.014 1.016 NNW 12,2 43,5 0,0
14-11-2021 10,2     14,3     19,5 9,3 46 61 80 1.012 1.014 1.017 SE 5,0 30,6 0,0
13-11-2021 12,9     14,9     19,2 6,3 51 64 74 1.015 1.016 1.017 NNW 5,8 32,2 0,0
12-11-2021 13,2     15,6     19,6 6,4 49 62 71 1.013 1.015 1.016 NNW 7,9 33,8 0,0
11-11-2021 10,9     14,3     17,5 6,6 52 61 68 1.014 1.015 1.016 NNW 7,6 43,5 0,0
10-11-2021 12,2     14,3     17,6 5,4 51 60 78 1.013 1.015 1.016 NNW 10,8 40,2 1,6 0,32 0,40
09-11-2021 8,9     13,1     18,1 9,2 41 52 60 1.015 1.016 1.017 NNW 8,0 37,0 0,0
08-11-2021 11,3     15,3     20,6 9,3 37 51 64 1.012 1.014 1.016 NNW 8,2 54,7 0,0
07-11-2021 9,8     12,9     17,8 8,0 24 40 55 1.016 1.018 1.021 NNW 10,6 40,2 0,0
06-11-2021 8,6     11,4     15,9 7,3 30 44 60 1.020 1.021 1.022 NNW 14,6 45,1 0,0
05-11-2021 8,6     10,8     14,9 6,3 42 56 64 1.015 1.018 1.021 NNW 12,7 41,8 0,0
04-11-2021 8,9     11,3     14,9 6,0 48 56 65 1.008 1.011 1.015 NNW 6,1 32,2 0,0
03-11-2021 10,8     13,1     15,4 4,6 42 54 66 1.002 1.004 1.008 NNW 8,9 40,2 0,0
02-11-2021 11,1     13,2     14,9 3,8 58 69 83 1.004 1.008 1.012 NNW 1,6 16,1 0,0
01-11-2021 14,1     19,1     24,5 10,4 41 70 87 1.005 1.007 1.010 SE 5,6 33,8 0,8
31-10-2021 15,2     20,8     26,5 11,3 52 67 83 1.006 1.008 1.010 SO 9,1 43,5 1,6
30-10-2021 13,7     16,7     21,0 7,3 58 82 92 1.005 1.007 1.010 SSW 6,9 35,4 4,6 0,37 0,40
29-10-2021 12,7     15,7     20,7 8,0 59 75 89 1.009 1.012 1.015 SE 4,0 32,2 1,8 0,20
Últims 13 mesos disponibles
10/2021 10,6 13,7 16,4 17,5 18,2 22,3 28,1 17,5 53 71 82 1.007 1.017 1.025 SE 5,1 48,3 12,6
09/2021 11,4 17,8 20,9 21,4 20,8 26,1 29,3 17,9 57 74 87 1.011 1.016 1.023 SE 5,7 59,5 134,4
08/2021 16,1 20,0 27,2 24,2 24,2 29,2 37,1 21,0 44 68 88 1.005 1.014 1.018 SE 6,2 69,2 19,8
07/2021 15,9 19,0 22,8 23,9 24,1 29,2 33,1 17,2 39 66 76 1.007 1.013 1.020 SE 7,2 56,3 28,4
06/2021 13,3 17,2 20,8 21,7 21,0 26,6 32,7 19,4 43 67 83 1.007 1.015 1.021 SE 5,9 54,7 45,6
05/2021 9,6 13,0 19,6 17,1 15,4 22,1 30,0 20,4 44 69 87 1.007 1.015 1.022 SE 6,5 53,1 30,6
04/2021 3,4 8,9 12,1 12,1 9,9 16,3 22,2 18,8 52 75 94 1.005 1.014 1.024 SE 5,0 45,1 131,6
03/2021 1,9 7,4 9,7 11,4 9,4 16,1 21,8 19,9 45 67 88 1.012 1.021 1.029 SE 5,6 49,9 47,0
02/2021 4,9 8,3 14,1 11,6 9,8 15,7 21,2 16,3 41 71 92 1.000 1.017 1.033 SE 6,7 90,1 15,8
01/2021 0,1 6,1 16,2 9,6 4,7 13,7 25,7 25,6 40 58 87 1.004 1.014 1.026 SE 8,9 98,2 69,0
12/2020 2,9 7,1 11,2 10,6 9,7 14,6 19,2 16,3 40 59 81 994 1.012 1.026 SE 7,0 72,4 4,2
11/2020 5,7 10,3 15,4 13,8 13,8 17,8 25,0 19,3 47 76 93 1.005 1.021 1.028 SE 4,7 49,9 236,6
10/2020 8,4 12,8 18,3 17,0 17,4 22,1 28,8 20,4 43 58 83 994 1.015 1.024 SE 7,3 78,9 12,0
Tots els anys disponibles
2020 1,8 12,9 24,3 16,9 6,2 21,5 35,0 33,2 35 65 93 994 1.016 1.031 SE 6,3 104,6 1.066,8
2019 1,8 13,0 25,9 17,0 9,1 21,7 38,4 36,6 22 59 88 990 1.015 1.032 SE 7,5 122,3 365,0
Temperatura (°C)
Humitat relativa (%)
Velocitat del vent i ràfega màxima (km/h)
Direcció del vent (°)
Pressió (hPa)
Precipitació (mm)
Nota sobre les dades: s'avisa a l'usuari de la provisionalitat i no oficialitat d'aquestes dades
Logo AVAMET blanc
Web allotjada a Sollutia
Llicència de Creative CommonsLa web d'AVAMET i els seus continguts estan subjectes a una llicència de
Reconeixement - No Comercial - Compartir igual
Avís legal - Política de privacitat - Política de cookies
NOVES ESTACIONS: Castelló de la Plana - IES Francesc Ribalta (Soci) / Castelló de la Plana - Camí de la Plana (Soci) /  Aspe - Calle San Juan (Soci) / El Ràfol d'Almúnia (Ajuntament Soci) / Nules (Platja) - l'Estany (Soci) / Soneja (Ajuntament Soci) / Castalla - CEIP Rico Sapena (Soci) / Ontinyent - Col·legi La Milagrosa (Soci) / l'Alcúdia de Veo - Veo (Soci) / Cullera - Far (Soci) / Loriguilla - Pozalet (Soci) / Polop (Ajuntament Soci) / Viver - Cooperativa (Soci) - - -